sensor_id;sensor_type;location;lat;lon;timestamp;pressure;altitude;pressure_sealevel;temperature;humidity
12781;BME280;6454;43.304;24.344;2023-09-08T00:02:26;100811.69;;;17.17;86.45
12781;BME280;6454;43.304;24.344;2023-09-08T00:04:54;100793.75;;;17.11;86.48
12781;BME280;6454;43.304;24.344;2023-09-08T00:07:22;100801.00;;;17.07;86.65
12781;BME280;6454;43.304;24.344;2023-09-08T00:09:49;100806.38;;;16.90;86.76
12781;BME280;6454;43.304;24.344;2023-09-08T00:12:19;100813.91;;;16.84;87.69
12781;BME280;6454;43.304;24.344;2023-09-08T00:14:47;100804.63;;;16.94;86.96
12781;BME280;6454;43.304;24.344;2023-09-08T00:17:14;100802.38;;;16.96;86.69
12781;BME280;6454;43.304;24.344;2023-09-08T00:19:43;100807.97;;;16.91;86.70
12781;BME280;6454;43.304;24.344;2023-09-08T00:22:10;100812.47;;;16.87;86.56
12781;BME280;6454;43.304;24.344;2023-09-08T00:24:38;100826.16;;;16.64;87.28
12781;BME280;6454;43.304;24.344;2023-09-08T00:27:04;100833.69;;;16.59;88.03
12781;BME280;6454;43.304;24.344;2023-09-08T00:29:33;100829.31;;;16.58;87.84
12781;BME280;6454;43.304;24.344;2023-09-08T00:32:00;100834.00;;;16.57;88.27
12781;BME280;6454;43.304;24.344;2023-09-08T00:34:27;100840.78;;;16.60;87.42
12781;BME280;6454;43.304;24.344;2023-09-08T00:36:54;100824.38;;;16.60;87.37
12781;BME280;6454;43.304;24.344;2023-09-08T00:39:21;100828.84;;;16.42;87.93
12781;BME280;6454;43.304;24.344;2023-09-08T00:41:48;100834.72;;;16.49;87.49
12781;BME280;6454;43.304;24.344;2023-09-08T00:44:15;100840.09;;;16.54;87.09
12781;BME280;6454;43.304;24.344;2023-09-08T00:46:44;100816.88;;;16.38;86.77
12781;BME280;6454;43.304;24.344;2023-09-08T00:49:13;100842.03;;;16.54;86.76
12781;BME280;6454;43.304;24.344;2023-09-08T00:51:40;100838.88;;;16.47;86.70
12781;BME280;6454;43.304;24.344;2023-09-08T00:54:07;100841.28;;;16.48;86.21
12781;BME280;6454;43.304;24.344;2023-09-08T00:56:37;100848.63;;;16.39;86.48
12781;BME280;6454;43.304;24.344;2023-09-08T00:59:04;100853.34;;;16.25;86.81
12781;BME280;6454;43.304;24.344;2023-09-08T01:01:33;100839.88;;;16.15;86.99
12781;BME280;6454;43.304;24.344;2023-09-08T01:04:03;100848.03;;;16.29;86.85
12781;BME280;6454;43.304;24.344;2023-09-08T01:06:30;100850.06;;;16.23;86.38
12781;BME280;6454;43.304;24.344;2023-09-08T01:09:00;100840.34;;;16.17;86.62
12781;BME280;6454;43.304;24.344;2023-09-08T01:11:29;100848.34;;;16.13;86.93
12781;BME280;6454;43.304;24.344;2023-09-08T01:13:57;100843.38;;;16.16;86.32
12781;BME280;6454;43.304;24.344;2023-09-08T01:16:25;100843.50;;;16.10;86.33
12781;BME280;6454;43.304;24.344;2023-09-08T01:18:52;100838.22;;;16.00;86.64
12781;BME280;6454;43.304;24.344;2023-09-08T01:21:46;100844.72;;;15.91;87.38
12781;BME280;6454;43.304;24.344;2023-09-08T01:24:27;100838.84;;;15.84;88.11
12781;BME280;6454;43.304;24.344;2023-09-08T01:27:00;100829.56;;;15.85;88.27
12781;BME280;6454;43.304;24.344;2023-09-08T01:29:29;100833.09;;;15.85;87.97
12781;BME280;6454;43.304;24.344;2023-09-08T01:31:57;100835.63;;;15.82;87.98
12781;BME280;6454;43.304;24.344;2023-09-08T01:34:26;100839.88;;;15.88;87.77
12781;BME280;6454;43.304;24.344;2023-09-08T01:36:54;100838.47;;;15.90;87.08
12781;BME280;6454;43.304;24.344;2023-09-08T01:39:21;100836.94;;;15.84;87.19
12781;BME280;6454;43.304;24.344;2023-09-08T01:41:48;100840.50;;;15.85;87.51
12781;BME280;6454;43.304;24.344;2023-09-08T01:44:16;100835.41;;;15.78;87.57
12781;BME280;6454;43.304;24.344;2023-09-08T01:46:45;100827.63;;;15.72;87.14
12781;BME280;6454;43.304;24.344;2023-09-08T01:49:12;100830.03;;;15.73;87.35
12781;BME280;6454;43.304;24.344;2023-09-08T01:51:39;100832.09;;;15.68;87.84
12781;BME280;6454;43.304;24.344;2023-09-08T01:54:06;100829.72;;;15.61;88.14
12781;BME280;6454;43.304;24.344;2023-09-08T01:56:33;100835.94;;;15.67;88.11
12781;BME280;6454;43.304;24.344;2023-09-08T01:59:00;100832.09;;;15.68;87.89
12781;BME280;6454;43.304;24.344;2023-09-08T02:01:28;100830.56;;;15.62;88.47
12781;BME280;6454;43.304;24.344;2023-09-08T02:03:56;100832.59;;;15.70;88.29
12781;BME280;6454;43.304;24.344;2023-09-08T02:06:24;100836.75;;;15.67;87.88
12781;BME280;6454;43.304;24.344;2023-09-08T02:08:51;100821.53;;;15.61;87.96
12781;BME280;6454;43.304;24.344;2023-09-08T02:11:17;100831.28;;;15.67;87.96
12781;BME280;6454;43.304;24.344;2023-09-08T02:13:46;100834.81;;;15.68;87.20
12781;BME280;6454;43.304;24.344;2023-09-08T02:16:13;100836.34;;;15.60;87.48
12781;BME280;6454;43.304;24.344;2023-09-08T02:18:41;100838.75;;;15.62;87.55
12781;BME280;6454;43.304;24.344;2023-09-08T02:21:10;100837.75;;;15.58;88.10
12781;BME280;6454;43.304;24.344;2023-09-08T02:23:38;100835.22;;;15.61;87.42
12781;BME280;6454;43.304;24.344;2023-09-08T02:26:05;100831.25;;;15.54;87.50
12781;BME280;6454;43.304;24.344;2023-09-08T02:28:34;100835.00;;;15.58;87.39
12781;BME280;6454;43.304;24.344;2023-09-08T02:31:01;100830.34;;;15.58;86.80
12781;BME280;6454;43.304;24.344;2023-09-08T02:33:28;100834.47;;;15.56;87.19
12781;BME280;6454;43.304;24.344;2023-09-08T02:36:03;100828.59;;;15.48;88.23
12781;BME280;6454;43.304;24.344;2023-09-08T02:38:30;100831.75;;;15.56;87.24
12781;BME280;6454;43.304;24.344;2023-09-08T02:40:58;100832.66;;;15.51;87.13
12781;BME280;6454;43.304;24.344;2023-09-08T02:43:24;100830.44;;;15.53;87.22
12781;BME280;6454;43.304;24.344;2023-09-08T02:45:53;100826.09;;;15.52;86.87
12781;BME280;6454;43.304;24.344;2023-09-08T02:48:20;100824.78;;;15.50;87.43
12781;BME280;6454;43.304;24.344;2023-09-08T02:50:47;100824.19;;;15.53;87.22
12781;BME280;6454;43.304;24.344;2023-09-08T02:53:15;100821.09;;;15.40;87.51
12781;BME280;6454;43.304;24.344;2023-09-08T02:55:43;100826.94;;;15.34;87.90
12781;BME280;6454;43.304;24.344;2023-09-08T02:58:12;100823.13;;;15.35;88.20
12781;BME280;6454;43.304;24.344;2023-09-08T03:00:39;100829.41;;;15.35;87.56
12781;BME280;6454;43.304;24.344;2023-09-08T03:03:06;100829.41;;;15.35;87.87
12781;BME280;6454;43.304;24.344;2023-09-08T03:05:33;100829.41;;;15.35;87.68
12781;BME280;6454;43.304;24.344;2023-09-08T03:08:00;100828.44;;;15.26;87.55
12781;BME280;6454;43.304;24.344;2023-09-08T03:10:29;100832.78;;;15.14;88.72
12781;BME280;6454;43.304;24.344;2023-09-08T03:12:59;100832.03;;;15.08;88.95
12781;BME280;6454;43.304;24.344;2023-09-08T03:15:26;100832.56;;;15.10;88.33
12781;BME280;6454;43.304;24.344;2023-09-08T03:17:53;100833.75;;;15.04;88.74
12781;BME280;6454;43.304;24.344;2023-09-08T03:20:21;100832.34;;;15.07;88.18
12781;BME280;6454;43.304;24.344;2023-09-08T03:22:48;100825.25;;;15.06;88.24
12781;BME280;6454;43.304;24.344;2023-09-08T03:25:15;100825.56;;;15.04;88.55
12781;BME280;6454;43.304;24.344;2023-09-08T03:27:43;100825.16;;;15.11;87.95
12781;BME280;6454;43.304;24.344;2023-09-08T03:30:11;100822.44;;;15.11;87.97
12781;BME280;6454;43.304;24.344;2023-09-08T03:32:38;100828.13;;;15.14;88.15
12781;BME280;6454;43.304;24.344;2023-09-08T03:35:06;100824.06;;;15.12;87.73
12781;BME280;6454;43.304;24.344;2023-09-08T03:37:34;100836.66;;;14.94;88.51
12781;BME280;6454;43.304;24.344;2023-09-08T03:40:02;100827.66;;;14.94;88.83
12781;BME280;6454;43.304;24.344;2023-09-08T03:42:30;100825.00;;;14.89;89.04
12781;BME280;6454;43.304;24.344;2023-09-08T03:45:00;100833.34;;;14.97;88.67
12781;BME280;6454;43.304;24.344;2023-09-08T03:47:27;100830.28;;;14.99;88.49
12781;BME280;6454;43.304;24.344;2023-09-08T03:49:54;100840.81;;;14.92;88.52
12781;BME280;6454;43.304;24.344;2023-09-08T03:52:21;100842.00;;;14.86;88.68
12781;BME280;6454;43.304;24.344;2023-09-08T03:54:48;100851.16;;;14.76;89.44
12781;BME280;6454;43.304;24.344;2023-09-08T03:57:15;100844.75;;;14.86;89.58
12781;BME280;6454;43.304;24.344;2023-09-08T03:59:42;100846.22;;;14.78;89.74
12781;BME280;6454;43.304;24.344;2023-09-08T04:02:11;100853.28;;;14.79;91.28
12781;BME280;6454;43.304;24.344;2023-09-08T04:04:38;100851.63;;;14.83;90.34
12781;BME280;6454;43.304;24.344;2023-09-08T04:07:05;100856.47;;;14.86;90.69
12781;BME280;6454;43.304;24.344;2023-09-08T04:09:32;100851.44;;;14.93;90.49
12781;BME280;6454;43.304;24.344;2023-09-08T04:12:00;100855.06;;;14.89;90.42
12781;BME280;6454;43.304;24.344;2023-09-08T04:14:30;100854.03;;;14.84;90.82
12781;BME280;6454;43.304;24.344;2023-09-08T04:17:00;100855.59;;;14.91;90.54
12781;BME280;6454;43.304;24.344;2023-09-08T04:19:29;100845.03;;;14.84;90.63
12781;BME280;6454;43.304;24.344;2023-09-08T04:21:57;100852.03;;;14.90;90.54
12781;BME280;6454;43.304;24.344;2023-09-08T04:24:24;100858.75;;;14.79;91.54
12781;BME280;6454;43.304;24.344;2023-09-08T04:26:51;100866.22;;;14.73;92.27
12781;BME280;6454;43.304;24.344;2023-09-08T04:29:20;100867.03;;;14.74;92.99
12781;BME280;6454;43.304;24.344;2023-09-08T04:31:47;100867.63;;;14.71;93.90
12781;BME280;6454;43.304;24.344;2023-09-08T04:34:16;100865.84;;;14.80;93.96
12781;BME280;6454;43.304;24.344;2023-09-08T04:36:46;100869.94;;;14.96;93.09
12781;BME280;6454;43.304;24.344;2023-09-08T04:39:15;100876.00;;;15.12;92.82
12781;BME280;6454;43.304;24.344;2023-09-08T04:41:43;100864.66;;;15.18;92.31
12781;BME280;6454;43.304;24.344;2023-09-08T04:44:10;100858.00;;;15.24;92.91
12781;BME280;6454;43.304;24.344;2023-09-08T04:46:37;100865.94;;;15.39;93.04
12781;BME280;6454;43.304;24.344;2023-09-08T04:49:04;100865.34;;;15.42;92.38
12781;BME280;6454;43.304;24.344;2023-09-08T04:51:32;100869.19;;;15.41;92.48
12781;BME280;6454;43.304;24.344;2023-09-08T04:54:02;100869.94;;;15.47;92.79
12781;BME280;6454;43.304;24.344;2023-09-08T04:56:31;100870.97;;;15.65;92.92
12781;BME280;6454;43.304;24.344;2023-09-08T04:58:57;100868.56;;;15.77;92.30
12781;BME280;6454;43.304;24.344;2023-09-08T05:01:26;100870.97;;;15.78;94.89
12781;BME280;6454;43.304;24.344;2023-09-08T05:03:55;100842.28;;;15.76;97.11
12781;BME280;6454;43.304;24.344;2023-09-08T05:06:23;100880.31;;;15.91;96.97
12781;BME280;6454;43.304;24.344;2023-09-08T05:08:50;100869.38;;;16.04;97.39
12781;BME280;6454;43.304;24.344;2023-09-08T05:11:19;100876.56;;;16.14;97.79
12781;BME280;6454;43.304;24.344;2023-09-08T05:13:47;100878.06;;;16.20;97.75
12781;BME280;6454;43.304;24.344;2023-09-08T05:16:16;100876.84;;;16.26;97.89
12781;BME280;6454;43.304;24.344;2023-09-08T05:18:45;100872.16;;;16.40;96.66
12781;BME280;6454;43.304;24.344;2023-09-08T05:21:12;100877.72;;;16.49;97.03
12781;BME280;6454;43.304;24.344;2023-09-08T05:23:41;100873.97;;;16.58;97.82
12781;BME280;6454;43.304;24.344;2023-09-08T05:26:09;100876.34;;;16.73;96.73
12781;BME280;6454;43.304;24.344;2023-09-08T05:28:38;100865.97;;;16.84;96.02
12781;BME280;6454;43.304;24.344;2023-09-08T05:31:06;100873.00;;;16.99;96.07
12781;BME280;6454;43.304;24.344;2023-09-08T05:33:33;100871.06;;;17.21;93.30
12781;BME280;6454;43.304;24.344;2023-09-08T05:36:00;100860.03;;;17.35;93.19
12781;BME280;6454;43.304;24.344;2023-09-08T05:38:27;100870.09;;;17.48;92.32
12781;BME280;6454;43.304;24.344;2023-09-08T05:40:54;100869.72;;;17.63;92.31
12781;BME280;6454;43.304;24.344;2023-09-08T05:43:24;100868.31;;;17.74;91.50
12781;BME280;6454;43.304;24.344;2023-09-08T05:45:53;100875.63;;;17.87;91.39
12781;BME280;6454;43.304;24.344;2023-09-08T05:48:21;100875.34;;;17.97;91.78
12781;BME280;6454;43.304;24.344;2023-09-08T05:50:48;100872.81;;;18.18;92.41
12781;BME280;6454;43.304;24.344;2023-09-08T05:53:15;100874.78;;;18.26;91.94
12781;BME280;6454;43.304;24.344;2023-09-08T05:55:43;100884.66;;;18.36;91.17
12781;BME280;6454;43.304;24.344;2023-09-08T05:58:11;100874.81;;;18.43;90.36
12781;BME280;6454;43.304;24.344;2023-09-08T06:00:38;100873.56;;;18.49;90.40
12781;BME280;6454;43.304;24.344;2023-09-08T06:03:08;100878.41;;;18.61;90.07
12781;BME280;6454;43.304;24.344;2023-09-08T06:05:35;100875.84;;;18.73;90.32
12781;BME280;6454;43.304;24.344;2023-09-08T06:08:02;100884.72;;;18.87;89.53
12781;BME280;6454;43.304;24.344;2023-09-08T06:10:30;100883.75;;;19.00;86.93
12781;BME280;6454;43.304;24.344;2023-09-08T06:12:57;100871.47;;;19.06;83.81
12781;BME280;6454;43.304;24.344;2023-09-08T06:15:24;100875.97;;;19.19;83.44
12781;BME280;6454;43.304;24.344;2023-09-08T06:17:51;100878.53;;;19.33;81.07
12781;BME280;6454;43.304;24.344;2023-09-08T06:20:20;100885.81;;;19.46;80.70
12781;BME280;6454;43.304;24.344;2023-09-08T06:22:46;100889.97;;;19.61;80.64
12781;BME280;6454;43.304;24.344;2023-09-08T06:25:13;100881.50;;;19.74;80.21
12781;BME280;6454;43.304;24.344;2023-09-08T06:27:41;100880.16;;;19.89;78.83
12781;BME280;6454;43.304;24.344;2023-09-08T06:30:10;100877.03;;;19.99;77.42
12781;BME280;6454;43.304;24.344;2023-09-08T06:32:38;100879.75;;;20.08;76.94
12781;BME280;6454;43.304;24.344;2023-09-08T06:35:06;100874.66;;;20.18;76.18
12781;BME280;6454;43.304;24.344;2023-09-08T06:37:43;100886.00;;;20.25;75.49
12781;BME280;6454;43.304;24.344;2023-09-08T06:40:14;100885.47;;;20.32;73.98
12781;BME280;6454;43.304;24.344;2023-09-08T06:42:43;100879.38;;;20.47;72.43
12781;BME280;6454;43.304;24.344;2023-09-08T06:45:13;100882.88;;;20.56;69.71
12781;BME280;6454;43.304;24.344;2023-09-08T06:47:42;100887.19;;;20.66;68.23
12781;BME280;6454;43.304;24.344;2023-09-08T06:50:13;100882.94;;;20.68;68.55
12781;BME280;6454;43.304;24.344;2023-09-08T06:52:42;100882.19;;;20.80;68.67
12781;BME280;6454;43.304;24.344;2023-09-08T06:55:09;100886.19;;;20.91;68.67
12781;BME280;6454;43.304;24.344;2023-09-08T06:57:36;100885.78;;;21.01;66.82
12781;BME280;6454;43.304;24.344;2023-09-08T07:00:05;100887.44;;;21.14;65.36
12781;BME280;6454;43.304;24.344;2023-09-08T07:02:40;100897.00;;;21.16;63.71
12781;BME280;6454;43.304;24.344;2023-09-08T07:05:08;100893.44;;;21.16;62.78
12781;BME280;6454;43.304;24.344;2023-09-08T07:07:36;100894.84;;;21.22;61.90
12781;BME280;6454;43.304;24.344;2023-09-08T07:10:06;100890.16;;;21.35;61.17
12781;BME280;6454;43.304;24.344;2023-09-08T07:12:34;100889.72;;;21.45;61.53
12781;BME280;6454;43.304;24.344;2023-09-08T07:15:01;100883.66;;;21.51;60.56
12781;BME280;6454;43.304;24.344;2023-09-08T07:17:29;100887.94;;;21.61;61.32
12781;BME280;6454;43.304;24.344;2023-09-08T07:19:57;100872.63;;;21.51;62.05
12781;BME280;6454;43.304;24.344;2023-09-08T07:22:23;100895.88;;;21.74;61.82
12781;BME280;6454;43.304;24.344;2023-09-08T07:24:51;100898.56;;;21.83;62.01
12781;BME280;6454;43.304;24.344;2023-09-08T07:27:19;100903.31;;;21.95;62.34
12781;BME280;6454;43.304;24.344;2023-09-08T07:29:46;100905.84;;;22.00;61.21
12781;BME280;6454;43.304;24.344;2023-09-08T07:32:16;100900.09;;;22.05;59.97
12781;BME280;6454;43.304;24.344;2023-09-08T07:34:44;100901.72;;;22.18;60.63
12781;BME280;6454;43.304;24.344;2023-09-08T07:37:13;100902.16;;;22.32;62.75
12781;BME280;6454;43.304;24.344;2023-09-08T07:39:39;100909.06;;;22.38;59.97
12781;BME280;6454;43.304;24.344;2023-09-08T07:42:06;100903.28;;;22.55;60.33
12781;BME280;6454;43.304;24.344;2023-09-08T07:44:36;100903.06;;;22.60;59.08
12781;BME280;6454;43.304;24.344;2023-09-08T07:47:04;100895.91;;;22.71;59.62
12781;BME280;6454;43.304;24.344;2023-09-08T07:49:33;100907.41;;;22.85;58.44
12781;BME280;6454;43.304;24.344;2023-09-08T07:52:01;100770.13;;;22.13;58.14
12781;BME280;6454;43.304;24.344;2023-09-08T07:54:30;100890.31;;;22.95;57.69
12781;BME280;6454;43.304;24.344;2023-09-08T07:56:57;100902.91;;;23.08;57.23
12781;BME280;6454;43.304;24.344;2023-09-08T07:59:24;100902.91;;;23.08;58.20
12781;BME280;6454;43.304;24.344;2023-09-08T08:01:54;100898.25;;;23.25;58.01
12781;BME280;6454;43.304;24.344;2023-09-08T08:04:22;100899.03;;;23.37;57.12
12781;BME280;6454;43.304;24.344;2023-09-08T08:06:49;100907.38;;;23.53;56.35
12781;BME280;6454;43.304;24.344;2023-09-08T08:09:16;100896.28;;;23.68;55.77
12781;BME280;6454;43.304;24.344;2023-09-08T08:11:43;100896.13;;;23.77;55.72
12781;BME280;6454;43.304;24.344;2023-09-08T08:14:11;100897.28;;;23.92;56.43
12781;BME280;6454;43.304;24.344;2023-09-08T08:16:38;100896.31;;;24.00;55.21
12781;BME280;6454;43.304;24.344;2023-09-08T08:19:07;100883.19;;;24.12;54.11
12781;BME280;6454;43.304;24.344;2023-09-08T08:21:34;100878.09;;;24.14;53.97
12781;BME280;6454;43.304;24.344;2023-09-08T08:24:03;100882.00;;;24.29;54.59
12781;BME280;6454;43.304;24.344;2023-09-08T08:26:31;100872.25;;;24.35;54.34
12781;BME280;6454;43.304;24.344;2023-09-08T08:28:59;100872.41;;;24.42;54.58
12781;BME280;6454;43.304;24.344;2023-09-08T08:31:26;100875.13;;;24.58;54.82
12781;BME280;6454;43.304;24.344;2023-09-08T08:33:53;100874.56;;;24.68;54.93
12781;BME280;6454;43.304;24.344;2023-09-08T08:36:22;100866.25;;;24.68;53.55
12781;BME280;6454;43.304;24.344;2023-09-08T08:38:49;100867.50;;;24.70;52.24
12781;BME280;6454;43.304;24.344;2023-09-08T08:41:16;100868.78;;;24.76;52.18
12781;BME280;6454;43.304;24.344;2023-09-08T08:43:44;100873.34;;;24.84;53.61
12781;BME280;6454;43.304;24.344;2023-09-08T08:46:13;100868.75;;;24.92;52.44
12781;BME280;6454;43.304;24.344;2023-09-08T08:48:42;100863.34;;;24.99;52.73
12781;BME280;6454;43.304;24.344;2023-09-08T08:51:10;100868.31;;;25.09;51.72
12781;BME280;6454;43.304;24.344;2023-09-08T08:53:40;100864.50;;;25.17;51.81
12781;BME280;6454;43.304;24.344;2023-09-08T08:56:08;100864.25;;;25.26;51.55
12781;BME280;6454;43.304;24.344;2023-09-08T08:58:38;100861.63;;;25.33;50.35
12781;BME280;6454;43.304;24.344;2023-09-08T09:01:06;100864.31;;;25.48;49.41
12781;BME280;6454;43.304;24.344;2023-09-08T09:03:35;100861.63;;;25.52;49.87
12781;BME280;6454;43.304;24.344;2023-09-08T09:06:04;100857.72;;;25.56;49.64
12781;BME280;6454;43.304;24.344;2023-09-08T09:08:32;100860.75;;;25.71;49.36
12781;BME280;6454;43.304;24.344;2023-09-08T09:11:00;100852.34;;;25.90;50.66
12781;BME280;6454;43.304;24.344;2023-09-08T09:13:27;100847.75;;;26.01;51.76
12781;BME280;6454;43.304;24.344;2023-09-08T09:15:58;100845.06;;;26.08;49.47
12781;BME280;6454;43.304;24.344;2023-09-08T09:18:25;100838.25;;;26.28;49.90
12781;BME280;6454;43.304;24.344;2023-09-08T09:20:56;100833.50;;;26.29;49.88
12781;BME280;6454;43.304;24.344;2023-09-08T09:23:31;100844.13;;;26.49;48.67
12781;BME280;6454;43.304;24.344;2023-09-08T09:26:00;100844.94;;;26.50;47.73
12781;BME280;6454;43.304;24.344;2023-09-08T09:28:29;100844.22;;;26.56;47.35
12781;BME280;6454;43.304;24.344;2023-09-08T09:30:56;100831.84;;;26.54;47.09
12781;BME280;6454;43.304;24.344;2023-09-08T09:33:25;100829.50;;;26.56;48.67
12781;BME280;6454;43.304;24.344;2023-09-08T09:35:53;100840.03;;;26.69;47.39
12781;BME280;6454;43.304;24.344;2023-09-08T09:38:21;100840.16;;;26.80;47.13
12781;BME280;6454;43.304;24.344;2023-09-08T09:40:49;100822.13;;;26.70;47.04
12781;BME280;6454;43.304;24.344;2023-09-08T09:43:20;100830.88;;;26.69;48.51
12781;BME280;6454;43.304;24.344;2023-09-08T09:45:48;100835.78;;;26.49;49.24
12781;BME280;6454;43.304;24.344;2023-09-08T09:48:15;100826.81;;;26.33;48.82
12781;BME280;6454;43.304;24.344;2023-09-08T09:50:42;100821.13;;;26.52;47.29
12781;BME280;6454;43.304;24.344;2023-09-08T09:53:11;100826.44;;;26.64;47.72
12781;BME280;6454;43.304;24.344;2023-09-08T09:55:39;100812.59;;;26.71;47.91
12781;BME280;6454;43.304;24.344;2023-09-08T09:58:07;100825.03;;;26.77;47.97
12781;BME280;6454;43.304;24.344;2023-09-08T10:00:39;100814.75;;;26.81;47.79
12781;BME280;6454;43.304;24.344;2023-09-08T10:03:07;100695.22;;;25.99;47.42
12781;BME280;6454;43.304;24.344;2023-09-08T10:05:35;100799.03;;;26.66;48.47
12781;BME280;6454;43.304;24.344;2023-09-08T10:08:05;100802.41;;;26.82;48.97
12781;BME280;6454;43.304;24.344;2023-09-08T10:10:33;100790.31;;;27.01;47.28
12781;BME280;6454;43.304;24.344;2023-09-08T10:13:02;100784.84;;;27.12;47.19
12781;BME280;6454;43.304;24.344;2023-09-08T10:15:33;100770.41;;;27.03;46.60
12781;BME280;6454;43.304;24.344;2023-09-08T10:18:04;100785.75;;;27.23;45.83
12781;BME280;6454;43.304;24.344;2023-09-08T10:20:32;100777.91;;;27.35;46.73
12781;BME280;6454;43.304;24.344;2023-09-08T10:23:06;100782.00;;;27.45;46.07
12781;BME280;6454;43.304;24.344;2023-09-08T10:25:39;100777.69;;;27.51;46.05
12781;BME280;6454;43.304;24.344;2023-09-08T10:28:09;100786.66;;;27.34;46.49
12781;BME280;6454;43.304;24.344;2023-09-08T10:30:37;100774.22;;;27.24;45.08
12781;BME280;6454;43.304;24.344;2023-09-08T10:33:07;100776.16;;;27.17;46.33
12781;BME280;6454;43.304;24.344;2023-09-08T10:35:34;100760.50;;;27.05;45.60
12781;BME280;6454;43.304;24.344;2023-09-08T10:38:23;100771.56;;;26.95;44.87
12781;BME280;6454;43.304;24.344;2023-09-08T10:40:51;100769.88;;;26.87;46.10
12781;BME280;6454;43.304;24.344;2023-09-08T10:43:20;100763.69;;;27.04;46.21
12781;BME280;6454;43.304;24.344;2023-09-08T10:45:47;100757.63;;;26.95;45.47
12781;BME280;6454;43.304;24.344;2023-09-08T10:48:15;100754.34;;;26.85;44.35
12781;BME280;6454;43.304;24.344;2023-09-08T10:50:43;100751.19;;;26.87;45.21
12781;BME280;6454;43.304;24.344;2023-09-08T10:53:13;100749.63;;;26.93;46.43
12781;BME280;6454;43.304;24.344;2023-09-08T10:55:42;100735.06;;;27.07;44.54
12781;BME280;6454;43.304;24.344;2023-09-08T10:58:18;100751.16;;;27.24;44.06
12781;BME280;6454;43.304;24.344;2023-09-08T11:00:47;100741.91;;;27.16;44.23
12781;BME280;6454;43.304;24.344;2023-09-08T11:03:26;100752.53;;;27.04;42.81
12781;BME280;6454;43.304;24.344;2023-09-08T11:05:56;100746.50;;;26.98;43.27
12781;BME280;6454;43.304;24.344;2023-09-08T11:08:23;100746.66;;;27.12;43.53
12781;BME280;6454;43.304;24.344;2023-09-08T11:10:51;100744.28;;;27.14;42.26
12781;BME280;6454;43.304;24.344;2023-09-08T11:13:18;100735.41;;;27.02;42.34
12781;BME280;6454;43.304;24.344;2023-09-08T11:15:45;100727.25;;;26.82;42.62
12781;BME280;6454;43.304;24.344;2023-09-08T11:18:12;100728.03;;;26.79;43.32
12781;BME280;6454;43.304;24.344;2023-09-08T11:20:41;100730.47;;;26.84;43.93
12781;BME280;6454;43.304;24.344;2023-09-08T11:23:10;100727.44;;;27.00;42.98
12781;BME280;6454;43.304;24.344;2023-09-08T11:25:38;100727.28;;;27.26;42.34
12781;BME280;6454;43.304;24.344;2023-09-08T11:28:06;100726.88;;;27.24;42.00
12781;BME280;6454;43.304;24.344;2023-09-08T11:30:33;100721.31;;;27.28;42.09
12781;BME280;6454;43.304;24.344;2023-09-08T11:33:01;100712.69;;;27.40;43.43
12781;BME280;6454;43.304;24.344;2023-09-08T11:35:31;100642.47;;;27.17;41.65
12781;BME280;6454;43.304;24.344;2023-09-08T11:38:03;100705.03;;;27.81;40.44
12781;BME280;6454;43.304;24.344;2023-09-08T11:40:31;100701.44;;;27.80;40.50
12781;BME280;6454;43.304;24.344;2023-09-08T11:43:00;100702.66;;;27.86;40.44
12781;BME280;6454;43.304;24.344;2023-09-08T11:45:27;100695.56;;;27.99;39.57
12781;BME280;6454;43.304;24.344;2023-09-08T11:47:56;100684.06;;;28.08;38.44
12781;BME280;6454;43.304;24.344;2023-09-08T11:50:24;100682.16;;;28.19;38.31
12781;BME280;6454;43.304;24.344;2023-09-08T11:52:51;100672.63;;;28.31;38.47
12781;BME280;6454;43.304;24.344;2023-09-08T11:55:22;100669.84;;;28.38;37.82
12781;BME280;6454;43.304;24.344;2023-09-08T11:57:50;100673.50;;;28.59;39.03
12781;BME280;6454;43.304;24.344;2023-09-08T12:00:21;100674.38;;;28.81;37.85
12781;BME280;6454;43.304;24.344;2023-09-08T12:02:49;100666.78;;;28.92;38.28
12781;BME280;6454;43.304;24.344;2023-09-08T12:05:25;100670.00;;;28.91;37.59
12781;BME280;6454;43.304;24.344;2023-09-08T12:07:54;100668.75;;;28.70;37.55
12781;BME280;6454;43.304;24.344;2023-09-08T12:10:24;100659.56;;;28.70;38.13
12781;BME280;6454;43.304;24.344;2023-09-08T12:12:52;100655.13;;;28.55;38.22
12781;BME280;6454;43.304;24.344;2023-09-08T12:15:31;100647.13;;;28.36;37.35
12781;BME280;6454;43.304;24.344;2023-09-08T12:18:02;100648.38;;;28.56;38.20
12781;BME280;6454;43.304;24.344;2023-09-08T12:20:30;100645.63;;;28.77;37.69
12781;BME280;6454;43.304;24.344;2023-09-08T12:23:00;100643.22;;;28.68;38.17
12781;BME280;6454;43.304;24.344;2023-09-08T12:25:29;100630.41;;;28.53;38.44
12781;BME280;6454;43.304;24.344;2023-09-08T12:27:58;100626.84;;;28.56;38.90
12781;BME280;6454;43.304;24.344;2023-09-08T12:30:25;100626.41;;;28.40;36.71
12781;BME280;6454;43.304;24.344;2023-09-08T12:32:56;100639.13;;;28.31;36.85
12781;BME280;6454;43.304;24.344;2023-09-08T12:35:24;100635.53;;;28.23;37.69
12781;BME280;6454;43.304;24.344;2023-09-08T12:37:57;100626.00;;;28.38;38.16
12781;BME280;6454;43.304;24.344;2023-09-08T12:40:26;100624.03;;;28.46;36.99
12781;BME280;6454;43.304;24.344;2023-09-08T12:42:55;100620.06;;;28.47;37.92
12781;BME280;6454;43.304;24.344;2023-09-08T12:45:25;100614.78;;;28.21;38.61
12781;BME280;6454;43.304;24.344;2023-09-08T12:47:52;100622.28;;;28.02;39.93
12781;BME280;6454;43.304;24.344;2023-09-08T12:50:20;100623.13;;;28.10;39.89
12781;BME280;6454;43.304;24.344;2023-09-08T12:52:47;100606.44;;;28.28;38.54
12781;BME280;6454;43.304;24.344;2023-09-08T12:55:17;100606.06;;;28.36;39.42
12781;BME280;6454;43.304;24.344;2023-09-08T12:57:44;100616.06;;;28.51;39.79